Main page
METAR-TAF:

METAR-TAF

Airports :

Recife/Guararapes–Gilberto Freyre International Airport

Recife, Pernambuco, Brazil

latitude: 08-08S, longitude: 034-55W, elevation: 19 m

Current weather observation

The report was made 36 minutes ago, at 03:00 UTC
Wind 6 kt from the Southeast
Temperature 27°C
Humidity 66%
Pressure 1015 hPa
Visibility 10 km or more
Scattered clouds at a height of 2300 ft

METAR: SBRF 270300Z 14006KT 9999 SCT023 27/20 Q1015

Time: 00:36 (03:36 UTC)

Forecast

The report was made 5 hours and 36 minutes ago, at 22:00 UTC
Forecast valid from 27 at 00 UTC to 27 at 24 UTC
Wind 8 kt from the South/Southeast
Visibility: 8000 m
Scattered clouds at a height of 2200 ft
Probability 30% :
Temporary
from 27 at 07 UTC to 27 at 09 UTC
Visibility: 5000 m
Scattered clouds at a height of 1000 ft
Broken clouds at a height of 1700 ft
rain showers

TAF: SBRF 262200Z 2700/2724 15008KT 8000 SCT022 TN24/2705Z TX29/2717Z PROB30 TEMPO 2707/2709 5000 SHRA SCT010 BKN017 RMK PEU

Weather observations and forecasts of more than 4000 airports (METAR and TAF reports).

The available stations are represented by yellow and red dots on the map.

Hover mouse over dot to see the name of the station.

Then click to see weather observations and forecasts.

To change the map : click on the green buttons with a black cross to zoom in, on the green button with a dash to zoom out, or on the green arrows for adjacent maps.


METAR-TAF: